sensor_id;sensor_type;location;lat;lon;timestamp;temperature;humidity
3578;DHT22;1803;48.494;9.696;2022-07-09T03:01:44;11.60;99.90
3578;DHT22;1803;48.494;9.696;2022-07-09T03:04:09;11.60;99.90
3578;DHT22;1803;48.494;9.696;2022-07-09T03:06:35;11.60;99.90
3578;DHT22;1803;48.494;9.696;2022-07-09T03:09:00;11.60;99.90
3578;DHT22;1803;48.494;9.696;2022-07-09T03:11:26;11.60;99.90
3578;DHT22;1803;48.494;9.696;2022-07-09T03:13:54;11.50;99.90
3578;DHT22;1803;48.494;9.696;2022-07-09T03:16:20;11.60;99.90
3578;DHT22;1803;48.494;9.696;2022-07-09T03:18:45;11.50;99.90
3578;DHT22;1803;48.494;9.696;2022-07-09T03:21:11;11.60;99.90
3578;DHT22;1803;48.494;9.696;2022-07-09T03:23:36;11.60;99.90
3578;DHT22;1803;48.494;9.696;2022-07-09T03:26:03;11.50;99.90
3578;DHT22;1803;48.494;9.696;2022-07-09T03:28:29;11.50;99.90
3578;DHT22;1803;48.494;9.696;2022-07-09T03:30:54;11.60;99.90
3578;DHT22;1803;48.494;9.696;2022-07-09T03:33:21;11.60;99.90
3578;DHT22;1803;48.494;9.696;2022-07-09T03:35:46;11.60;99.90
3578;DHT22;1803;48.494;9.696;2022-07-09T03:38:11;11.60;99.90
3578;DHT22;1803;48.494;9.696;2022-07-09T03:40:37;11.70;99.90
3578;DHT22;1803;48.494;9.696;2022-07-09T03:43:02;11.60;99.90
3578;DHT22;1803;48.494;9.696;2022-07-09T03:45:28;11.70;99.90
3578;DHT22;1803;48.494;9.696;2022-07-09T03:47:53;11.80;99.90
3578;DHT22;1803;48.494;9.696;2022-07-09T03:50:19;11.80;99.90
3578;DHT22;1803;48.494;9.696;2022-07-09T03:52:45;11.80;99.90
3578;DHT22;1803;48.494;9.696;2022-07-09T03:55:11;11.90;99.90
3578;DHT22;1803;48.494;9.696;2022-07-09T03:57:37;12.00;99.90
3578;DHT22;1803;48.494;9.696;2022-07-09T04:00:03;12.00;99.90
3578;DHT22;1803;48.494;9.696;2022-07-09T04:02:29;12.10;99.90
3578;DHT22;1803;48.494;9.696;2022-07-09T04:04:54;12.20;99.90
3578;DHT22;1803;48.494;9.696;2022-07-09T04:07:22;12.30;99.90
3578;DHT22;1803;48.494;9.696;2022-07-09T04:09:47;12.40;99.90
3578;DHT22;1803;48.494;9.696;2022-07-09T04:12:13;12.40;99.90
3578;DHT22;1803;48.494;9.696;2022-07-09T04:14:38;12.50;99.90
3578;DHT22;1803;48.494;9.696;2022-07-09T04:17:04;12.60;99.90
3578;DHT22;1803;48.494;9.696;2022-07-09T04:19:29;12.70;99.90
3578;DHT22;1803;48.494;9.696;2022-07-09T04:21:54;12.80;99.90
3578;DHT22;1803;48.494;9.696;2022-07-09T04:24:20;12.90;99.90
3578;DHT22;1803;48.494;9.696;2022-07-09T04:26:45;13.00;99.90
3578;DHT22;1803;48.494;9.696;2022-07-09T04:29:11;13.10;99.90
3578;DHT22;1803;48.494;9.696;2022-07-09T04:31:36;13.20;99.90
3578;DHT22;1803;48.494;9.696;2022-07-09T04:34:02;13.30;99.90
3578;DHT22;1803;48.494;9.696;2022-07-09T04:36:27;13.40;99.90
3578;DHT22;1803;48.494;9.696;2022-07-09T04:38:54;13.50;99.90
3578;DHT22;1803;48.494;9.696;2022-07-09T04:41:21;13.70;99.90
3578;DHT22;1803;48.494;9.696;2022-07-09T04:43:46;13.90;99.90
3578;DHT22;1803;48.494;9.696;2022-07-09T04:46:13;14.00;99.90
3578;DHT22;1803;48.494;9.696;2022-07-09T04:48:39;14.20;99.90
3578;DHT22;1803;48.494;9.696;2022-07-09T04:51:04;14.40;99.90
3578;DHT22;1803;48.494;9.696;2022-07-09T04:53:30;15.00;99.90
3578;DHT22;1803;48.494;9.696;2022-07-09T04:55:55;16.70;99.90
3578;DHT22;1803;48.494;9.696;2022-07-09T04:58:21;18.10;99.90
3578;DHT22;1803;48.494;9.696;2022-07-09T05:00:47;19.20;99.90
3578;DHT22;1803;48.494;9.696;2022-07-09T05:03:12;20.20;99.90
3578;DHT22;1803;48.494;9.696;2022-07-09T05:05:38;21.10;99.90
3578;DHT22;1803;48.494;9.696;2022-07-09T05:08:03;21.80;99.90
3578;DHT22;1803;48.494;9.696;2022-07-09T05:10:29;22.80;99.90
3578;DHT22;1803;48.494;9.696;2022-07-09T05:12:54;23.10;99.80
3578;DHT22;1803;48.494;9.696;2022-07-09T05:15:20;23.90;97.50
3578;DHT22;1803;48.494;9.696;2022-07-09T05:17:46;24.80;95.30
3578;DHT22;1803;48.494;9.696;2022-07-09T05:20:11;25.30;93.40
3578;DHT22;1803;48.494;9.696;2022-07-09T05:22:37;26.10;91.30
3578;DHT22;1803;48.494;9.696;2022-07-09T05:25:03;26.70;88.70
3578;DHT22;1803;48.494;9.696;2022-07-09T05:27:29;27.10;84.80
3578;DHT22;1803;48.494;9.696;2022-07-09T05:29:54;27.70;83.00
3578;DHT22;1803;48.494;9.696;2022-07-09T05:32:20;28.30;78.60
3578;DHT22;1803;48.494;9.696;2022-07-09T05:34:45;29.20;74.70
3578;DHT22;1803;48.494;9.696;2022-07-09T05:37:11;30.20;70.80
3578;DHT22;1803;48.494;9.696;2022-07-09T05:39:36;31.20;66.70
3578;DHT22;1803;48.494;9.696;2022-07-09T05:42:02;32.40;63.40
3578;DHT22;1803;48.494;9.696;2022-07-09T05:44:27;33.60;59.40
3578;DHT22;1803;48.494;9.696;2022-07-09T05:46:53;34.60;57.10
3578;DHT22;1803;48.494;9.696;2022-07-09T05:49:18;35.40;54.70
3578;DHT22;1803;48.494;9.696;2022-07-09T05:51:44;36.00;52.60
3578;DHT22;1803;48.494;9.696;2022-07-09T05:54:09;37.00;51.80
3578;DHT22;1803;48.494;9.696;2022-07-09T05:56:35;37.70;49.00
3578;DHT22;1803;48.494;9.696;2022-07-09T05:59:02;38.00;47.90
3578;DHT22;1803;48.494;9.696;2022-07-09T06:01:28;37.90;48.10
3578;DHT22;1803;48.494;9.696;2022-07-09T06:03:53;38.00;46.70
3578;DHT22;1803;48.494;9.696;2022-07-09T06:06:19;37.80;46.60
3578;DHT22;1803;48.494;9.696;2022-07-09T06:08:44;36.80;47.60
3578;DHT22;1803;48.494;9.696;2022-07-09T06:11:10;37.00;47.00
3578;DHT22;1803;48.494;9.696;2022-07-09T06:13:36;37.20;46.30
3578;DHT22;1803;48.494;9.696;2022-07-09T06:16:02;37.70;46.80
3578;DHT22;1803;48.494;9.696;2022-07-09T06:18:27;38.00;46.80
3578;DHT22;1803;48.494;9.696;2022-07-09T06:20:52;38.10;45.10
3578;DHT22;1803;48.494;9.696;2022-07-09T06:23:18;38.40;45.40
3578;DHT22;1803;48.494;9.696;2022-07-09T06:25:44;38.20;44.30
3578;DHT22;1803;48.494;9.696;2022-07-09T06:28:10;37.60;44.60
3578;DHT22;1803;48.494;9.696;2022-07-09T06:30:35;36.50;43.00
3578;DHT22;1803;48.494;9.696;2022-07-09T06:33:01;36.60;44.20
3578;DHT22;1803;48.494;9.696;2022-07-09T06:35:26;37.30;44.50
3578;DHT22;1803;48.494;9.696;2022-07-09T06:37:52;38.00;42.50
3578;DHT22;1803;48.494;9.696;2022-07-09T06:40:17;38.90;40.80
3578;DHT22;1803;48.494;9.696;2022-07-09T06:42:43;39.70;40.70
3578;DHT22;1803;48.494;9.696;2022-07-09T06:45:08;40.00;40.60
3578;DHT22;1803;48.494;9.696;2022-07-09T06:47:34;40.30;40.10
3578;DHT22;1803;48.494;9.696;2022-07-09T06:50:00;40.20;38.00
3578;DHT22;1803;48.494;9.696;2022-07-09T06:52:25;39.80;38.80
3578;DHT22;1803;48.494;9.696;2022-07-09T06:54:50;39.50;38.90
3578;DHT22;1803;48.494;9.696;2022-07-09T06:57:16;40.00;40.10
3578;DHT22;1803;48.494;9.696;2022-07-09T06:59:43;40.20;38.80
3578;DHT22;1803;48.494;9.696;2022-07-09T07:02:08;40.30;39.30
3578;DHT22;1803;48.494;9.696;2022-07-09T07:04:34;40.60;39.60
3578;DHT22;1803;48.494;9.696;2022-07-09T07:06:59;40.60;39.90
3578;DHT22;1803;48.494;9.696;2022-07-09T07:09:25;41.00;39.10
3578;DHT22;1803;48.494;9.696;2022-07-09T07:11:50;41.90;38.60
3578;DHT22;1803;48.494;9.696;2022-07-09T07:14:16;42.60;37.30
3578;DHT22;1803;48.494;9.696;2022-07-09T07:16:42;43.00;35.40
3578;DHT22;1803;48.494;9.696;2022-07-09T07:19:07;43.20;35.10
3578;DHT22;1803;48.494;9.696;2022-07-09T07:21:33;42.60;34.50
3578;DHT22;1803;48.494;9.696;2022-07-09T07:23:58;42.00;35.40
3578;DHT22;1803;48.494;9.696;2022-07-09T07:26:24;41.50;36.40
3578;DHT22;1803;48.494;9.696;2022-07-09T07:28:49;40.60;36.90
3578;DHT22;1803;48.494;9.696;2022-07-09T07:31:15;38.20;38.50
3578;DHT22;1803;48.494;9.696;2022-07-09T07:33:40;36.30;40.60
3578;DHT22;1803;48.494;9.696;2022-07-09T07:36:06;38.50;40.00
3578;DHT22;1803;48.494;9.696;2022-07-09T07:38:33;40.20;37.90
3578;DHT22;1803;48.494;9.696;2022-07-09T07:40:58;40.30;37.40
3578;DHT22;1803;48.494;9.696;2022-07-09T07:43:24;40.40;37.50
3578;DHT22;1803;48.494;9.696;2022-07-09T07:45:49;40.00;37.40
3578;DHT22;1803;48.494;9.696;2022-07-09T07:48:14;37.50;40.20
3578;DHT22;1803;48.494;9.696;2022-07-09T07:50:40;35.10;42.70
3578;DHT22;1803;48.494;9.696;2022-07-09T07:53:05;35.70;42.30
3578;DHT22;1803;48.494;9.696;2022-07-09T07:55:32;37.40;40.90
3578;DHT22;1803;48.494;9.696;2022-07-09T07:57:57;35.10;41.30
3578;DHT22;1803;48.494;9.696;2022-07-09T08:00:23;35.60;43.10
3578;DHT22;1803;48.494;9.696;2022-07-09T08:02:48;35.80;41.50
3578;DHT22;1803;48.494;9.696;2022-07-09T08:05:13;33.30;44.30
3578;DHT22;1803;48.494;9.696;2022-07-09T08:07:39;33.50;44.90
3578;DHT22;1803;48.494;9.696;2022-07-09T08:10:04;32.50;47.20
3578;DHT22;1803;48.494;9.696;2022-07-09T08:12:30;31.80;46.50
3578;DHT22;1803;48.494;9.696;2022-07-09T08:14:56;30.80;49.60
3578;DHT22;1803;48.494;9.696;2022-07-09T08:17:21;30.90;50.70
3578;DHT22;1803;48.494;9.696;2022-07-09T08:19:47;34.90;45.90
3578;DHT22;1803;48.494;9.696;2022-07-09T08:22:13;37.00;42.40
3578;DHT22;1803;48.494;9.696;2022-07-09T08:24:38;33.90;43.20
3578;DHT22;1803;48.494;9.696;2022-07-09T08:27:04;31.60;46.40
3578;DHT22;1803;48.494;9.696;2022-07-09T08:29:29;30.00;50.00
3578;DHT22;1803;48.494;9.696;2022-07-09T08:31:55;29.20;51.80
3578;DHT22;1803;48.494;9.696;2022-07-09T08:34:20;28.60;52.60
3578;DHT22;1803;48.494;9.696;2022-07-09T08:36:46;28.50;53.20
3578;DHT22;1803;48.494;9.696;2022-07-09T08:39:11;30.80;52.40
3578;DHT22;1803;48.494;9.696;2022-07-09T08:41:37;30.80;50.30
3578;DHT22;1803;48.494;9.696;2022-07-09T08:44:03;30.00;51.50
3578;DHT22;1803;48.494;9.696;2022-07-09T08:46:29;29.50;52.20
3578;DHT22;1803;48.494;9.696;2022-07-09T08:48:56;29.00;52.60
3578;DHT22;1803;48.494;9.696;2022-07-09T08:51:23;28.90;53.50
3578;DHT22;1803;48.494;9.696;2022-07-09T08:53:48;29.20;54.80
3578;DHT22;1803;48.494;9.696;2022-07-09T08:56:14;29.80;53.90
3578;DHT22;1803;48.494;9.696;2022-07-09T08:58:40;29.80;52.70
3578;DHT22;1803;48.494;9.696;2022-07-09T09:01:06;29.90;53.90
3578;DHT22;1803;48.494;9.696;2022-07-09T09:03:32;30.10;53.00
3578;DHT22;1803;48.494;9.696;2022-07-09T09:06:01;30.20;53.70
3578;DHT22;1803;48.494;9.696;2022-07-09T09:08:27;30.20;52.40
3578;DHT22;1803;48.494;9.696;2022-07-09T09:10:53;30.20;50.70
3578;DHT22;1803;48.494;9.696;2022-07-09T09:13:18;30.00;52.50
3578;DHT22;1803;48.494;9.696;2022-07-09T09:15:44;29.60;49.70
3578;DHT22;1803;48.494;9.696;2022-07-09T09:18:10;29.00;52.20
3578;DHT22;1803;48.494;9.696;2022-07-09T09:20:35;29.20;53.50
3578;DHT22;1803;48.494;9.696;2022-07-09T09:23:01;29.60;54.00
3578;DHT22;1803;48.494;9.696;2022-07-09T09:25:30;29.90;53.00
3578;DHT22;1803;48.494;9.696;2022-07-09T09:27:56;29.90;51.50
3578;DHT22;1803;48.494;9.696;2022-07-09T09:30:22;29.70;52.70
3578;DHT22;1803;48.494;9.696;2022-07-09T09:33:01;29.00;52.90
3578;DHT22;1803;48.494;9.696;2022-07-09T09:35:29;28.40;54.10
3578;DHT22;1803;48.494;9.696;2022-07-09T09:37:55;28.20;56.50
3578;DHT22;1803;48.494;9.696;2022-07-09T09:40:22;27.60;57.00
3578;DHT22;1803;48.494;9.696;2022-07-09T09:42:48;27.30;57.10
3578;DHT22;1803;48.494;9.696;2022-07-09T09:45:13;26.90;55.90
3578;DHT22;1803;48.494;9.696;2022-07-09T09:47:43;26.50;56.00
3578;DHT22;1803;48.494;9.696;2022-07-09T09:50:10;26.20;54.90
3578;DHT22;1803;48.494;9.696;2022-07-09T09:52:39;26.20;57.00
3578;DHT22;1803;48.494;9.696;2022-07-09T09:55:05;27.00;56.60
3578;DHT22;1803;48.494;9.696;2022-07-09T09:57:31;27.80;56.00
3578;DHT22;1803;48.494;9.696;2022-07-09T09:59:57;28.70;54.70
3578;DHT22;1803;48.494;9.696;2022-07-09T10:02:22;28.10;51.40
3578;DHT22;1803;48.494;9.696;2022-07-09T10:04:49;27.50;52.10
3578;DHT22;1803;48.494;9.696;2022-07-09T10:07:14;27.20;52.30
3578;DHT22;1803;48.494;9.696;2022-07-09T10:09:40;27.80;51.90
3578;DHT22;1803;48.494;9.696;2022-07-09T10:12:06;28.60;51.70
3578;DHT22;1803;48.494;9.696;2022-07-09T10:14:34;29.00;49.50
3578;DHT22;1803;48.494;9.696;2022-07-09T10:17:13;29.30;52.60
3578;DHT22;1803;48.494;9.696;2022-07-09T10:19:49;29.80;52.60
3578;DHT22;1803;48.494;9.696;2022-07-09T10:22:15;30.30;53.40
3578;DHT22;1803;48.494;9.696;2022-07-09T10:24:43;30.60;50.60
3578;DHT22;1803;48.494;9.696;2022-07-09T10:27:09;30.70;52.00
3578;DHT22;1803;48.494;9.696;2022-07-09T10:29:36;30.90;50.90
3578;DHT22;1803;48.494;9.696;2022-07-09T10:32:02;31.10;53.00
3578;DHT22;1803;48.494;9.696;2022-07-09T10:37:00;31.30;51.30
3578;DHT22;1803;48.494;9.696;2022-07-09T10:39:26;31.30;49.30
3578;DHT22;1803;48.494;9.696;2022-07-09T10:42:01;31.30;49.20
3578;DHT22;1803;48.494;9.696;2022-07-09T10:44:27;31.10;49.30
3578;DHT22;1803;48.494;9.696;2022-07-09T10:46:56;30.60;48.30
3578;DHT22;1803;48.494;9.696;2022-07-09T10:49:22;30.10;48.00
3578;DHT22;1803;48.494;9.696;2022-07-09T10:51:48;29.80;49.70
3578;DHT22;1803;48.494;9.696;2022-07-09T10:54:16;29.80;50.20
3578;DHT22;1803;48.494;9.696;2022-07-09T10:56:42;30.00;51.10
3578;DHT22;1803;48.494;9.696;2022-07-09T10:59:07;30.10;51.70
3578;DHT22;1803;48.494;9.696;2022-07-09T11:01:33;29.80;51.20
3578;DHT22;1803;48.494;9.696;2022-07-09T11:03:58;29.40;51.90
3578;DHT22;1803;48.494;9.696;2022-07-09T11:06:24;29.00;52.30
3578;DHT22;1803;48.494;9.696;2022-07-09T11:08:49;28.50;52.00
3578;DHT22;1803;48.494;9.696;2022-07-09T11:11:21;28.00;52.20
3578;DHT22;1803;48.494;9.696;2022-07-09T11:13:50;27.70;53.00
3578;DHT22;1803;48.494;9.696;2022-07-09T11:16:21;28.00;53.50
3578;DHT22;1803;48.494;9.696;2022-07-09T11:18:46;27.60;53.80
3578;DHT22;1803;48.494;9.696;2022-07-09T11:21:12;27.50;55.10
3578;DHT22;1803;48.494;9.696;2022-07-09T11:23:37;27.30;53.90
3578;DHT22;1803;48.494;9.696;2022-07-09T11:26:02;27.00;54.20
3578;DHT22;1803;48.494;9.696;2022-07-09T11:28:28;26.80;55.80
3578;DHT22;1803;48.494;9.696;2022-07-09T11:31:00;26.70;56.30
3578;DHT22;1803;48.494;9.696;2022-07-09T11:33:26;27.50;55.90
3578;DHT22;1803;48.494;9.696;2022-07-09T11:35:51;27.60;55.10
3578;DHT22;1803;48.494;9.696;2022-07-09T11:38:17;27.50;55.80
3578;DHT22;1803;48.494;9.696;2022-07-09T11:40:43;27.30;57.70
3578;DHT22;1803;48.494;9.696;2022-07-09T11:43:13;27.10;56.60
3578;DHT22;1803;48.494;9.696;2022-07-09T11:45:39;27.00;57.10
3578;DHT22;1803;48.494;9.696;2022-07-09T11:48:07;27.50;57.90
3578;DHT22;1803;48.494;9.696;2022-07-09T11:50:33;27.90;57.80
3578;DHT22;1803;48.494;9.696;2022-07-09T11:53:06;28.30;58.30
3578;DHT22;1803;48.494;9.696;2022-07-09T11:55:31;28.60;57.00
3578;DHT22;1803;48.494;9.696;2022-07-09T11:57:58;28.90;54.80
3578;DHT22;1803;48.494;9.696;2022-07-09T12:00:25;28.50;54.40
3578;DHT22;1803;48.494;9.696;2022-07-09T12:02:51;27.80;54.10
3578;DHT22;1803;48.494;9.696;2022-07-09T12:05:27;27.30;54.30
3578;DHT22;1803;48.494;9.696;2022-07-09T12:07:54;27.20;56.10
3578;DHT22;1803;48.494;9.696;2022-07-09T12:10:27;27.50;55.30
3578;DHT22;1803;48.494;9.696;2022-07-09T12:12:53;27.80;55.10
3578;DHT22;1803;48.494;9.696;2022-07-09T12:15:18;28.00;56.60
3578;DHT22;1803;48.494;9.696;2022-07-09T12:17:43;28.00;53.70
3578;DHT22;1803;48.494;9.696;2022-07-09T12:20:09;27.90;55.80
3578;DHT22;1803;48.494;9.696;2022-07-09T12:22:35;28.00;55.00
3578;DHT22;1803;48.494;9.696;2022-07-09T12:25:00;28.20;56.20
3578;DHT22;1803;48.494;9.696;2022-07-09T12:27:26;28.40;55.30
3578;DHT22;1803;48.494;9.696;2022-07-09T12:29:51;28.20;54.50
3578;DHT22;1803;48.494;9.696;2022-07-09T12:32:17;27.90;55.60
3578;DHT22;1803;48.494;9.696;2022-07-09T12:34:42;27.80;54.80
3578;DHT22;1803;48.494;9.696;2022-07-09T12:37:08;27.40;54.80
3578;DHT22;1803;48.494;9.696;2022-07-09T12:39:33;27.50;56.60
3578;DHT22;1803;48.494;9.696;2022-07-09T12:41:59;27.60;56.00
3578;DHT22;1803;48.494;9.696;2022-07-09T12:44:25;27.90;56.00
3578;DHT22;1803;48.494;9.696;2022-07-09T12:46:50;27.80;53.70
3578;DHT22;1803;48.494;9.696;2022-07-09T12:49:16;27.90;52.90
3578;DHT22;1803;48.494;9.696;2022-07-09T12:51:41;28.00;53.80
3578;DHT22;1803;48.494;9.696;2022-07-09T12:54:07;27.40;51.50
3578;DHT22;1803;48.494;9.696;2022-07-09T12:56:32;26.90;52.90
3578;DHT22;1803;48.494;9.696;2022-07-09T12:58:58;26.40;54.70
3578;DHT22;1803;48.494;9.696;2022-07-09T13:01:23;26.30;55.90
3578;DHT22;1803;48.494;9.696;2022-07-09T13:03:49;26.10;56.70
3578;DHT22;1803;48.494;9.696;2022-07-09T13:06:15;26.10;57.80
3578;DHT22;1803;48.494;9.696;2022-07-09T13:08:59;26.20;55.80
3578;DHT22;1803;48.494;9.696;2022-07-09T13:11:25;26.20;55.40
3578;DHT22;1803;48.494;9.696;2022-07-09T13:13:51;26.10;53.60
3578;DHT22;1803;48.494;9.696;2022-07-09T13:16:16;26.20;56.40
3578;DHT22;1803;48.494;9.696;2022-07-09T13:18:42;26.00;53.80
3578;DHT22;1803;48.494;9.696;2022-07-09T13:21:07;25.80;55.40
3578;DHT22;1803;48.494;9.696;2022-07-09T13:23:33;25.50;55.50
3578;DHT22;1803;48.494;9.696;2022-07-09T13:25:58;25.40;54.10
3578;DHT22;1803;48.494;9.696;2022-07-09T13:28:24;25.40;54.20
3578;DHT22;1803;48.494;9.696;2022-07-09T13:30:50;25.40;56.10
3578;DHT22;1803;48.494;9.696;2022-07-09T13:33:15;25.50;56.50
3578;DHT22;1803;48.494;9.696;2022-07-09T13:35:40;25.60;55.80
3578;DHT22;1803;48.494;9.696;2022-07-09T13:38:06;25.60;56.10
3578;DHT22;1803;48.494;9.696;2022-07-09T13:40:32;25.80;57.10
3578;DHT22;1803;48.494;9.696;2022-07-09T13:42:57;25.80;57.40
3578;DHT22;1803;48.494;9.696;2022-07-09T13:45:23;25.80;56.50
3578;DHT22;1803;48.494;9.696;2022-07-09T13:47:48;25.70;57.30
3578;DHT22;1803;48.494;9.696;2022-07-09T13:50:14;26.00;57.40
3578;DHT22;1803;48.494;9.696;2022-07-09T13:52:39;25.90;56.80
3578;DHT22;1803;48.494;9.696;2022-07-09T13:55:05;25.80;55.10
3578;DHT22;1803;48.494;9.696;2022-07-09T13:57:30;25.60;55.70
3578;DHT22;1803;48.494;9.696;2022-07-09T13:59:56;25.60;58.10
3578;DHT22;1803;48.494;9.696;2022-07-09T14:02:21;25.70;57.50
3578;DHT22;1803;48.494;9.696;2022-07-09T14:04:47;25.80;57.60
3578;DHT22;1803;48.494;9.696;2022-07-09T14:07:14;25.70;57.80
3578;DHT22;1803;48.494;9.696;2022-07-09T14:09:40;25.80;59.30
3578;DHT22;1803;48.494;9.696;2022-07-09T14:12:06;25.90;59.20
3578;DHT22;1803;48.494;9.696;2022-07-09T14:14:31;26.10;59.70
3578;DHT22;1803;48.494;9.696;2022-07-09T14:16:57;26.10;59.90
3578;DHT22;1803;48.494;9.696;2022-07-09T14:19:22;26.10;59.50
3578;DHT22;1803;48.494;9.696;2022-07-09T14:21:47;26.10;58.80
3578;DHT22;1803;48.494;9.696;2022-07-09T14:24:13;26.30;60.90
3578;DHT22;1803;48.494;9.696;2022-07-09T14:26:39;26.60;59.50
3578;DHT22;1803;48.494;9.696;2022-07-09T14:29:06;26.60;59.70
3578;DHT22;1803;48.494;9.696;2022-07-09T14:31:32;26.40;58.80
3578;DHT22;1803;48.494;9.696;2022-07-09T14:33:57;26.30;58.30
3578;DHT22;1803;48.494;9.696;2022-07-09T14:36:23;26.20;59.20
3578;DHT22;1803;48.494;9.696;2022-07-09T14:38:48;26.30;59.60
3578;DHT22;1803;48.494;9.696;2022-07-09T14:41:14;26.30;59.60
3578;DHT22;1803;48.494;9.696;2022-07-09T14:43:39;26.30;59.60
3578;DHT22;1803;48.494;9.696;2022-07-09T14:46:06;26.30;59.00
3578;DHT22;1803;48.494;9.696;2022-07-09T14:48:31;26.20;60.70
3578;DHT22;1803;48.494;9.696;2022-07-09T14:50:57;26.20;61.70
3578;DHT22;1803;48.494;9.696;2022-07-09T14:53:22;26.10;60.10
3578;DHT22;1803;48.494;9.696;2022-07-09T14:55:48;25.90;61.20
3578;DHT22;1803;48.494;9.696;2022-07-09T14:58:13;25.80;61.10
3578;DHT22;1803;48.494;9.696;2022-07-09T15:00:39;25.80;61.70
3578;DHT22;1803;48.494;9.696;2022-07-09T15:03:04;25.70;60.60
3578;DHT22;1803;48.494;9.696;2022-07-09T15:05:29;25.50;61.10
3578;DHT22;1803;48.494;9.696;2022-07-09T15:07:55;25.40;62.10
3578;DHT22;1803;48.494;9.696;2022-07-09T15:10:20;25.40;64.20
3578;DHT22;1803;48.494;9.696;2022-07-09T15:12:46;25.30;62.60
3578;DHT22;1803;48.494;9.696;2022-07-09T15:15:11;25.30;64.10
3578;DHT22;1803;48.494;9.696;2022-07-09T15:17:37;25.50;62.60
3578;DHT22;1803;48.494;9.696;2022-07-09T15:20:02;25.60;61.20
3578;DHT22;1803;48.494;9.696;2022-07-09T15:22:28;25.60;61.20
3578;DHT22;1803;48.494;9.696;2022-07-09T15:24:53;25.50;60.90
3578;DHT22;1803;48.494;9.696;2022-07-09T15:27:19;25.50;62.40
3578;DHT22;1803;48.494;9.696;2022-07-09T15:29:44;25.30;61.80
3578;DHT22;1803;48.494;9.696;2022-07-09T15:32:10;25.00;61.10
3578;DHT22;1803;48.494;9.696;2022-07-09T15:34:35;24.90;62.00
3578;DHT22;1803;48.494;9.696;2022-07-09T15:37:01;24.80;62.90
3578;DHT22;1803;48.494;9.696;2022-07-09T15:39:26;24.70;62.70
3578;DHT22;1803;48.494;9.696;2022-07-09T15:41:52;24.70;63.30
3578;DHT22;1803;48.494;9.696;2022-07-09T15:44:18;24.60;62.20
3578;DHT22;1803;48.494;9.696;2022-07-09T15:46:43;24.50;60.50
3578;DHT22;1803;48.494;9.696;2022-07-09T15:49:10;24.40;62.70
3578;DHT22;1803;48.494;9.696;2022-07-09T15:51:35;24.30;62.90
3578;DHT22;1803;48.494;9.696;2022-07-09T15:54:01;24.10;63.00
3578;DHT22;1803;48.494;9.696;2022-07-09T15:56:26;24.20;63.50
3578;DHT22;1803;48.494;9.696;2022-07-09T15:58:52;24.30;64.90
3578;DHT22;1803;48.494;9.696;2022-07-09T16:01:18;24.30;64.90
3578;DHT22;1803;48.494;9.696;2022-07-09T16:03:43;24.20;63.20
3578;DHT22;1803;48.494;9.696;2022-07-09T16:06:09;24.10;64.50
3578;DHT22;1803;48.494;9.696;2022-07-09T16:08:34;24.10;65.60
3578;DHT22;1803;48.494;9.696;2022-07-09T16:11:00;24.10;64.50
3578;DHT22;1803;48.494;9.696;2022-07-09T16:13:45;24.10;64.80
3578;DHT22;1803;48.494;9.696;2022-07-09T16:16:11;24.20;65.40
3578;DHT22;1803;48.494;9.696;2022-07-09T16:18:36;24.30;64.40
3578;DHT22;1803;48.494;9.696;2022-07-09T16:21:02;24.30;65.00
3578;DHT22;1803;48.494;9.696;2022-07-09T16:23:27;24.10;63.80
3578;DHT22;1803;48.494;9.696;2022-07-09T16:25:53;23.90;63.90
3578;DHT22;1803;48.494;9.696;2022-07-09T16:28:18;23.70;65.60
3578;DHT22;1803;48.494;9.696;2022-07-09T16:30:44;23.50;66.60
3578;DHT22;1803;48.494;9.696;2022-07-09T16:33:09;23.30;66.00
3578;DHT22;1803;48.494;9.696;2022-07-09T16:35:34;23.30;66.90
3578;DHT22;1803;48.494;9.696;2022-07-09T16:38:00;23.20;66.50
3578;DHT22;1803;48.494;9.696;2022-07-09T16:40:25;23.30;67.60
3578;DHT22;1803;48.494;9.696;2022-07-09T16:42:51;23.20;67.40
3578;DHT22;1803;48.494;9.696;2022-07-09T16:45:16;23.20;68.00
3578;DHT22;1803;48.494;9.696;2022-07-09T16:47:42;23.20;68.20
3578;DHT22;1803;48.494;9.696;2022-07-09T16:50:07;23.10;67.70
3578;DHT22;1803;48.494;9.696;2022-07-09T16:52:33;23.00;68.40
3578;DHT22;1803;48.494;9.696;2022-07-09T16:54:58;23.00;69.00
3578;DHT22;1803;48.494;9.696;2022-07-09T16:57:24;23.00;68.80
3578;DHT22;1803;48.494;9.696;2022-07-09T16:59:50;23.10;68.10
3578;DHT22;1803;48.494;9.696;2022-07-09T17:02:15;23.10;67.60
3578;DHT22;1803;48.494;9.696;2022-07-09T17:04:40;23.20;67.30
3578;DHT22;1803;48.494;9.696;2022-07-09T17:07:06;23.30;67.70
3578;DHT22;1803;48.494;9.696;2022-07-09T17:09:31;23.20;68.20
3578;DHT22;1803;48.494;9.696;2022-07-09T17:11:57;23.20;67.30
3578;DHT22;1803;48.494;9.696;2022-07-09T17:14:22;23.20;67.50
3578;DHT22;1803;48.494;9.696;2022-07-09T17:16:48;23.10;67.70
3578;DHT22;1803;48.494;9.696;2022-07-09T17:19:13;23.00;68.30
3578;DHT22;1803;48.494;9.696;2022-07-09T17:21:39;22.90;69.50
3578;DHT22;1803;48.494;9.696;2022-07-09T17:24:04;22.70;69.90
3578;DHT22;1803;48.494;9.696;2022-07-09T17:26:30;22.60;70.40
3578;DHT22;1803;48.494;9.696;2022-07-09T17:28:55;22.60;70.40
3578;DHT22;1803;48.494;9.696;2022-07-09T17:31:21;22.50;70.50
3578;DHT22;1803;48.494;9.696;2022-07-09T17:33:46;22.50;71.20
3578;DHT22;1803;48.494;9.696;2022-07-09T17:36:12;22.50;70.90
3578;DHT22;1803;48.494;9.696;2022-07-09T17:38:37;22.50;70.80
3578;DHT22;1803;48.494;9.696;2022-07-09T17:41:03;22.50;70.50
3578;DHT22;1803;48.494;9.696;2022-07-09T17:43:28;22.50;70.20
3578;DHT22;1803;48.494;9.696;2022-07-09T17:45:54;22.40;71.20
3578;DHT22;1803;48.494;9.696;2022-07-09T17:48:19;22.40;71.00
3578;DHT22;1803;48.494;9.696;2022-07-09T17:50:45;22.40;71.10
3578;DHT22;1803;48.494;9.696;2022-07-09T17:53:10;22.40;71.30
3578;DHT22;1803;48.494;9.696;2022-07-09T17:55:36;22.40;71.30
3578;DHT22;1803;48.494;9.696;2022-07-09T17:58:01;22.30;71.60
3578;DHT22;1803;48.494;9.696;2022-07-09T18:00:32;22.20;72.40
3578;DHT22;1803;48.494;9.696;2022-07-09T18:02:59;22.10;73.00
3578;DHT22;1803;48.494;9.696;2022-07-09T18:05:24;22.00;73.90
3578;DHT22;1803;48.494;9.696;2022-07-09T18:07:50;21.90;74.70
3578;DHT22;1803;48.494;9.696;2022-07-09T18:10:16;21.80;75.60
3578;DHT22;1803;48.494;9.696;2022-07-09T18:12:41;21.70;75.30
3578;DHT22;1803;48.494;9.696;2022-07-09T18:15:07;21.60;75.90
3578;DHT22;1803;48.494;9.696;2022-07-09T18:17:33;21.50;76.60
3578;DHT22;1803;48.494;9.696;2022-07-09T18:19:59;21.40;77.60
3578;DHT22;1803;48.494;9.696;2022-07-09T18:22:24;21.30;78.10
3578;DHT22;1803;48.494;9.696;2022-07-09T18:24:49;21.30;78.40
3578;DHT22;1803;48.494;9.696;2022-07-09T18:27:15;21.20;79.50
3578;DHT22;1803;48.494;9.696;2022-07-09T18:29:40;21.00;79.20
3578;DHT22;1803;48.494;9.696;2022-07-09T18:32:06;21.00;79.90
3578;DHT22;1803;48.494;9.696;2022-07-09T18:34:32;20.90;79.40
3578;DHT22;1803;48.494;9.696;2022-07-09T18:36:57;20.80;80.20
3578;DHT22;1803;48.494;9.696;2022-07-09T18:39:23;20.70;80.40
3578;DHT22;1803;48.494;9.696;2022-07-09T18:41:48;20.60;80.90
3578;DHT22;1803;48.494;9.696;2022-07-09T18:44:14;20.50;82.10
3578;DHT22;1803;48.494;9.696;2022-07-09T18:46:43;20.40;82.80
3578;DHT22;1803;48.494;9.696;2022-07-09T18:49:08;20.30;83.00
3578;DHT22;1803;48.494;9.696;2022-07-09T18:51:34;20.20;84.00
3578;DHT22;1803;48.494;9.696;2022-07-09T18:54:00;20.10;84.40
3578;DHT22;1803;48.494;9.696;2022-07-09T18:56:25;20.00;84.80